<?xml version="1.0" encoding="UTF-8" standalone="no" ?>
<gpx xmlns="http://www.topografix.com/GPX/1/1" xmlns:xsi="http://www.w3.org/2001/XMLSchema-instance" xsi:schemaLocation="http://www.topografix.com/GPX/1/1 http://www.topografix.com/GPX/1/1/gpx.xsd" version="1.1" creator="VisuGPX - https://www.visugpx.com">
  <metadata>
    <name>20201105</name>
  </metadata>
  <trk>
    <name><![CDATA[20201105]]></name>
    <trkseg>
      <trkpt lat="49.57257" lon="1.48356">
        <ele>122</ele>
        <time>2020-07-26T10:29:52+02:00</time>
      </trkpt>
      <trkpt lat="49.5733" lon="1.48435">
        <ele>120</ele>
        <time>2020-07-26T10:29:57+02:00</time>
      </trkpt>
      <trkpt lat="49.57369" lon="1.48452">
        <ele>121</ele>
        <time>2020-07-26T10:30:02+02:00</time>
      </trkpt>
      <trkpt lat="49.57449" lon="1.48399">
        <ele>124</ele>
        <time>2020-07-26T10:30:07+02:00</time>
      </trkpt>
      <trkpt lat="49.57506" lon="1.48334">
        <ele>127</ele>
        <time>2020-07-26T10:30:12+02:00</time>
      </trkpt>
      <trkpt lat="49.57664" lon="1.48347">
        <ele>127</ele>
        <time>2020-07-26T10:30:17+02:00</time>
      </trkpt>
      <trkpt lat="49.57763" lon="1.48686">
        <ele>118</ele>
        <time>2020-07-26T10:30:22+02:00</time>
      </trkpt>
      <trkpt lat="49.57877" lon="1.4875">
        <ele>119</ele>
        <time>2020-07-26T10:30:27+02:00</time>
      </trkpt>
      <trkpt lat="49.57972" lon="1.48759">
        <ele>122</ele>
        <time>2020-07-26T10:30:32+02:00</time>
      </trkpt>
      <trkpt lat="49.57972" lon="1.48613">
        <ele>124</ele>
        <time>2020-07-26T10:30:37+02:00</time>
      </trkpt>
      <trkpt lat="49.581" lon="1.48265">
        <ele>138</ele>
        <time>2020-07-26T10:30:42+02:00</time>
      </trkpt>
      <trkpt lat="49.58153" lon="1.47785">
        <ele>146</ele>
        <time>2020-07-26T10:30:47+02:00</time>
      </trkpt>
      <trkpt lat="49.58167" lon="1.47111">
        <ele>146</ele>
        <time>2020-07-26T10:30:52+02:00</time>
      </trkpt>
      <trkpt lat="49.58215" lon="1.46592">
        <ele>165</ele>
        <time>2020-07-26T10:30:57+02:00</time>
      </trkpt>
      <trkpt lat="49.58345" lon="1.45918">
        <ele>177</ele>
        <time>2020-07-26T10:31:02+02:00</time>
      </trkpt>
      <trkpt lat="49.58473" lon="1.45512">
        <ele>192</ele>
        <time>2020-07-26T10:31:07+02:00</time>
      </trkpt>
      <trkpt lat="49.58543" lon="1.45379">
        <ele>195</ele>
        <time>2020-07-26T10:31:12+02:00</time>
      </trkpt>
      <trkpt lat="49.58555" lon="1.45218">
        <ele>201</ele>
        <time>2020-07-26T10:31:17+02:00</time>
      </trkpt>
      <trkpt lat="49.58538" lon="1.44925">
        <ele>211</ele>
        <time>2020-07-26T10:31:22+02:00</time>
      </trkpt>
      <trkpt lat="49.58582" lon="1.44658">
        <ele>216</ele>
        <time>2020-07-26T10:31:27+02:00</time>
      </trkpt>
      <trkpt lat="49.58576" lon="1.44577">
        <ele>216</ele>
        <time>2020-07-26T10:31:32+02:00</time>
      </trkpt>
      <trkpt lat="49.58548" lon="1.445">
        <ele>215</ele>
        <time>2020-07-26T10:31:37+02:00</time>
      </trkpt>
      <trkpt lat="49.58505" lon="1.44341">
        <ele>218</ele>
        <time>2020-07-26T10:31:42+02:00</time>
      </trkpt>
      <trkpt lat="49.58495" lon="1.44109">
        <ele>219</ele>
        <time>2020-07-26T10:31:47+02:00</time>
      </trkpt>
      <trkpt lat="49.58443" lon="1.43936">
        <ele>222</ele>
        <time>2020-07-26T10:31:52+02:00</time>
      </trkpt>
      <trkpt lat="49.5842" lon="1.43917">
        <ele>222</ele>
        <time>2020-07-26T10:31:57+02:00</time>
      </trkpt>
      <trkpt lat="49.58374" lon="1.4386">
        <ele>221</ele>
        <time>2020-07-26T10:32:07+02:00</time>
      </trkpt>
      <trkpt lat="49.58319" lon="1.43775">
        <ele>218</ele>
        <time>2020-07-26T10:32:22+02:00</time>
      </trkpt>
      <trkpt lat="49.58211" lon="1.4391">
        <ele>215</ele>
        <time>2020-07-26T10:32:27+02:00</time>
      </trkpt>
      <trkpt lat="49.58139" lon="1.44081">
        <ele>211</ele>
        <time>2020-07-26T10:32:32+02:00</time>
      </trkpt>
      <trkpt lat="49.58019" lon="1.4427">
        <ele>204</ele>
        <time>2020-07-26T10:32:37+02:00</time>
      </trkpt>
      <trkpt lat="49.57925" lon="1.44416">
        <ele>200</ele>
        <time>2020-07-26T10:32:42+02:00</time>
      </trkpt>
      <trkpt lat="49.57809" lon="1.44425">
        <ele>190</ele>
        <time>2020-07-26T10:32:47+02:00</time>
      </trkpt>
      <trkpt lat="49.57744" lon="1.44436">
        <ele>185</ele>
        <time>2020-07-26T10:32:52+02:00</time>
      </trkpt>
      <trkpt lat="49.57693" lon="1.44456">
        <ele>182</ele>
        <time>2020-07-26T10:32:57+02:00</time>
      </trkpt>
      <trkpt lat="49.57635" lon="1.44509">
        <ele>178</ele>
        <time>2020-07-26T10:33:02+02:00</time>
      </trkpt>
      <trkpt lat="49.57612" lon="1.44525">
        <ele>176</ele>
        <time>2020-07-26T10:33:07+02:00</time>
      </trkpt>
      <trkpt lat="49.57562" lon="1.44518">
        <ele>172</ele>
        <time>2020-07-26T10:33:12+02:00</time>
      </trkpt>
      <trkpt lat="49.57459" lon="1.44505">
        <ele>180</ele>
      </trkpt>
      <trkpt lat="49.57405" lon="1.44507">
        <ele>187</ele>
      </trkpt>
      <trkpt lat="49.5731" lon="1.44467">
        <ele>199</ele>
        <time>2020-07-26T10:33:17+02:00</time>
      </trkpt>
      <trkpt lat="49.57272" lon="1.44408">
        <ele>206</ele>
        <time>2020-07-26T10:33:22+02:00</time>
      </trkpt>
      <trkpt lat="49.57263" lon="1.44349">
        <ele>206</ele>
        <time>2020-07-26T10:33:27+02:00</time>
      </trkpt>
      <trkpt lat="49.57225" lon="1.44275">
        <ele>207</ele>
        <time>2020-07-26T10:33:32+02:00</time>
      </trkpt>
      <trkpt lat="49.57158" lon="1.44163">
        <ele>211</ele>
        <time>2020-07-26T10:33:37+02:00</time>
      </trkpt>
      <trkpt lat="49.57061" lon="1.43995">
        <ele>215</ele>
        <time>2020-07-26T10:33:42+02:00</time>
      </trkpt>
      <trkpt lat="49.57002" lon="1.43961">
        <ele>218</ele>
        <time>2020-07-26T10:33:47+02:00</time>
      </trkpt>
      <trkpt lat="49.56943" lon="1.43974">
        <ele>220</ele>
        <time>2020-07-26T10:33:52+02:00</time>
      </trkpt>
      <trkpt lat="49.56917" lon="1.43926">
        <ele>220</ele>
        <time>2020-07-26T10:33:57+02:00</time>
      </trkpt>
      <trkpt lat="49.56888" lon="1.43893">
        <ele>221</ele>
        <time>2020-07-26T10:34:02+02:00</time>
      </trkpt>
      <trkpt lat="49.56833" lon="1.43863">
        <ele>222</ele>
        <time>2020-07-26T10:34:07+02:00</time>
      </trkpt>
      <trkpt lat="49.56781" lon="1.43843">
        <ele>222</ele>
        <time>2020-07-26T10:34:12+02:00</time>
      </trkpt>
      <trkpt lat="49.56672" lon="1.43811">
        <ele>221</ele>
      </trkpt>
      <trkpt lat="49.56603" lon="1.43762">
        <ele>221</ele>
        <time>2020-07-26T10:34:17+02:00</time>
      </trkpt>
      <trkpt lat="49.56564" lon="1.43744">
        <ele>220</ele>
        <time>2020-07-26T10:34:22+02:00</time>
      </trkpt>
      <trkpt lat="49.5642" lon="1.43797">
        <ele>219</ele>
        <time>2020-07-26T10:34:27+02:00</time>
      </trkpt>
      <trkpt lat="49.5627" lon="1.43848">
        <ele>216</ele>
        <time>2020-07-26T10:34:32+02:00</time>
      </trkpt>
      <trkpt lat="49.55965" lon="1.4392">
        <ele>219</ele>
        <time>2020-07-26T10:34:37+02:00</time>
      </trkpt>
      <trkpt lat="49.55936" lon="1.43948">
        <ele>220</ele>
      </trkpt>
      <trkpt lat="49.55883" lon="1.44081">
        <ele>224</ele>
      </trkpt>
      <trkpt lat="49.55738" lon="1.4426">
        <ele>220</ele>
        <time>2020-10-21T14:07:58+02:00</time>
      </trkpt>
      <trkpt lat="49.55474" lon="1.44613">
        <ele>215</ele>
        <time>2020-07-26T10:35:27+02:00</time>
      </trkpt>
      <trkpt lat="49.55284" lon="1.44793">
        <ele>217</ele>
        <time>2020-07-26T10:35:32+02:00</time>
      </trkpt>
      <trkpt lat="49.55167" lon="1.44888">
        <ele>218</ele>
        <time>2020-07-26T10:35:37+02:00</time>
      </trkpt>
      <trkpt lat="49.55097" lon="1.44884">
        <ele>219</ele>
      </trkpt>
      <trkpt lat="49.55031" lon="1.44836">
        <ele>220</ele>
        <time>2020-07-26T10:35:42+02:00</time>
      </trkpt>
      <trkpt lat="49.54944" lon="1.44812">
        <ele>217</ele>
        <time>2020-07-26T10:35:47+02:00</time>
      </trkpt>
      <trkpt lat="49.54897" lon="1.44814">
        <ele>214</ele>
      </trkpt>
      <trkpt lat="49.5487" lon="1.44831">
        <ele>212</ele>
        <time>2020-07-26T10:35:52+02:00</time>
      </trkpt>
      <trkpt lat="49.54809" lon="1.44916">
        <ele>210</ele>
        <time>2020-07-26T10:35:57+02:00</time>
      </trkpt>
      <trkpt lat="49.54973" lon="1.4535">
        <ele>220</ele>
        <time>2020-07-26T10:36:02+02:00</time>
      </trkpt>
      <trkpt lat="49.54998" lon="1.45433">
        <ele>218</ele>
      </trkpt>
      <trkpt lat="49.55004" lon="1.45517">
        <ele>215</ele>
        <time>2020-07-26T10:36:07+02:00</time>
      </trkpt>
      <trkpt lat="49.55003" lon="1.45612">
        <ele>211</ele>
      </trkpt>
      <trkpt lat="49.55064" lon="1.45855">
        <ele>208</ele>
        <time>2020-10-21T14:08:48+02:00</time>
      </trkpt>
      <trkpt lat="49.55142" lon="1.46047">
        <ele>208</ele>
        <time>2020-07-26T10:36:17+02:00</time>
      </trkpt>
      <trkpt lat="49.55215" lon="1.46148">
        <ele>207</ele>
        <time>2020-07-26T10:36:22+02:00</time>
      </trkpt>
      <trkpt lat="49.55363" lon="1.46268">
        <ele>195</ele>
        <time>2020-07-26T10:36:27+02:00</time>
      </trkpt>
      <trkpt lat="49.55396" lon="1.46346">
        <ele>192</ele>
      </trkpt>
      <trkpt lat="49.55412" lon="1.46508">
        <ele>183</ele>
        <time>2020-07-26T10:36:32+02:00</time>
      </trkpt>
      <trkpt lat="49.55437" lon="1.46717">
        <ele>177</ele>
        <time>2020-07-26T10:36:37+02:00</time>
      </trkpt>
      <trkpt lat="49.55458" lon="1.46889">
        <ele>170</ele>
        <time>2020-07-26T10:36:42+02:00</time>
      </trkpt>
      <trkpt lat="49.5543" lon="1.47125">
        <ele>155</ele>
        <time>2020-07-26T10:36:47+02:00</time>
      </trkpt>
      <trkpt lat="49.55428" lon="1.47197">
        <ele>150</ele>
        <time>2020-07-26T10:36:52+02:00</time>
      </trkpt>
      <trkpt lat="49.55436" lon="1.47368">
        <ele>143</ele>
        <time>2020-07-26T10:36:57+02:00</time>
      </trkpt>
      <trkpt lat="49.55493" lon="1.47293">
        <ele>144</ele>
        <time>2020-07-26T10:37:02+02:00</time>
      </trkpt>
      <trkpt lat="49.55555" lon="1.47225">
        <ele>148</ele>
        <time>2020-07-26T10:37:07+02:00</time>
      </trkpt>
      <trkpt lat="49.55719" lon="1.47182">
        <ele>158</ele>
        <time>2020-07-26T10:37:12+02:00</time>
      </trkpt>
      <trkpt lat="49.558" lon="1.47199">
        <ele>152</ele>
        <time>2020-07-26T10:37:17+02:00</time>
      </trkpt>
      <trkpt lat="49.55872" lon="1.47334">
        <ele>145</ele>
        <time>2020-07-26T10:37:22+02:00</time>
      </trkpt>
      <trkpt lat="49.55936" lon="1.4747">
        <ele>140</ele>
        <time>2020-07-26T10:37:27+02:00</time>
      </trkpt>
      <trkpt lat="49.55988" lon="1.47627">
        <ele>134</ele>
        <time>2020-07-26T10:37:32+02:00</time>
      </trkpt>
      <trkpt lat="49.56025" lon="1.47783">
        <ele>131</ele>
        <time>2020-07-26T10:37:37+02:00</time>
      </trkpt>
      <trkpt lat="49.56005" lon="1.47912">
        <ele>130</ele>
        <time>2020-07-26T10:37:42+02:00</time>
      </trkpt>
      <trkpt lat="49.55954" lon="1.48096">
        <ele>126</ele>
        <time>2020-07-26T10:37:47+02:00</time>
      </trkpt>
      <trkpt lat="49.55904" lon="1.48266">
        <ele>122</ele>
        <time>2020-07-26T10:37:52+02:00</time>
      </trkpt>
      <trkpt lat="49.56231" lon="1.4827">
        <ele>122</ele>
        <time>2020-07-26T10:37:57+02:00</time>
      </trkpt>
      <trkpt lat="49.56378" lon="1.48217">
        <ele>123</ele>
        <time>2020-07-26T10:38:02+02:00</time>
      </trkpt>
      <trkpt lat="49.56808" lon="1.48061">
        <ele>129</ele>
        <time>2020-07-26T10:38:07+02:00</time>
      </trkpt>
      <trkpt lat="49.57007" lon="1.47993">
        <ele>131</ele>
        <time>2020-07-26T10:38:12+02:00</time>
      </trkpt>
      <trkpt lat="49.57213" lon="1.47941">
        <ele>124</ele>
        <time>2020-07-26T10:38:17+02:00</time>
      </trkpt>
      <trkpt lat="49.57311" lon="1.47976">
        <ele>130</ele>
        <time>2020-07-26T10:38:22+02:00</time>
      </trkpt>
      <trkpt lat="49.57272" lon="1.4816">
        <ele>127</ele>
        <time>2020-07-26T10:38:27+02:00</time>
      </trkpt>
      <trkpt lat="49.57263" lon="1.48356">
        <ele>122</ele>
        <time>2020-07-26T10:38:32+02:00</time>
      </trkpt>
    </trkseg>
  </trk>
</gpx>